EHGG/GRQ METAR and TAF weather

Enter ICAO airport designator
Station Type Date Time Source
EHGG METAR 2019/12/11 17:25 UTC NOAA

EHGG 111725Z AUTO 19007KT 6000 FEW026 BKN043 05/05 Q1003 TEMPO BKN006


Station Type Date Time Source
EHGG Decoded METAR 2019/12/11 17:25 UTC NOAA

Groningen Airport Eelde, Netherlands (EHGG) 53-08N 006-35E 4M
Dec 11, 2019 - 12:25 PM EST / 2019.12.11 1725 UTC
Wind: from the S (190 degrees) at 8 MPH (7 KT):0
Visibility: 3 mile(s):0
Sky conditions: mostly cloudy
Temperature: 41 F (5 C)
Dew Point: 41 F (5 C)
Relative Humidity: 100%
Pressure (altimeter): 29.62 in. Hg (1003 hPa)
ob: EHGG 111725Z AUTO 19007KT 6000 FEW026 BKN043 05/05 Q1003 TEMPO BKN006
cycle: 17

Station Type Date Time Source
EHGG TAF 2019/12/11 18:27 UTC NOAA

TAF EHGG 111721Z 1118/1224 19008KT 7000 SCT006 SCT040
TEMPO 1118/1120 4000 BR BKN006
BECMG 1120/1123 4000 BR BKN003
TEMPO 1203/1209 -RADZ BKN006
BECMG 1207/1210 23010KT 9999 NSW SCT030
BECMG 1212/1215 18010KT
BECMG 1218/1221 15015G26KT

Example: see airport list